sensor_id;sensor_type;location;lat;lon;timestamp;P1;durP1;ratioP1;P2;durP2;ratioP2
9830;SDS011;4954;48.476;8.168;2024-03-29T00:01:04;40.40;;;32.23;;
9830;SDS011;4954;48.476;8.168;2024-03-29T00:03:29;42.17;;;32.67;;
9830;SDS011;4954;48.476;8.168;2024-03-29T00:05:55;47.50;;;33.87;;
9830;SDS011;4954;48.476;8.168;2024-03-29T00:08:20;42.80;;;32.43;;
9830;SDS011;4954;48.476;8.168;2024-03-29T00:10:46;46.07;;;32.87;;
9830;SDS011;4954;48.476;8.168;2024-03-29T00:13:12;34.80;;;29.60;;
9830;SDS011;4954;48.476;8.168;2024-03-29T00:15:38;46.27;;;32.67;;
9830;SDS011;4954;48.476;8.168;2024-03-29T00:18:03;41.90;;;32.10;;
9830;SDS011;4954;48.476;8.168;2024-03-29T00:20:29;39.43;;;31.87;;
9830;SDS011;4954;48.476;8.168;2024-03-29T00:22:55;40.73;;;31.60;;
9830;SDS011;4954;48.476;8.168;2024-03-29T00:25:21;43.00;;;32.60;;
9830;SDS011;4954;48.476;8.168;2024-03-29T00:27:46;41.80;;;32.80;;
9830;SDS011;4954;48.476;8.168;2024-03-29T00:30:13;40.17;;;31.50;;
9830;SDS011;4954;48.476;8.168;2024-03-29T00:32:39;40.43;;;31.87;;
9830;SDS011;4954;48.476;8.168;2024-03-29T00:35:05;39.17;;;31.47;;
9830;SDS011;4954;48.476;8.168;2024-03-29T00:37:31;39.40;;;31.33;;
9830;SDS011;4954;48.476;8.168;2024-03-29T00:39:56;41.40;;;32.37;;
9830;SDS011;4954;48.476;8.168;2024-03-29T00:42:22;44.80;;;31.97;;
9830;SDS011;4954;48.476;8.168;2024-03-29T00:44:49;42.60;;;32.30;;
9830;SDS011;4954;48.476;8.168;2024-03-29T00:47:15;39.47;;;31.73;;
9830;SDS011;4954;48.476;8.168;2024-03-29T00:49:40;40.30;;;31.80;;
9830;SDS011;4954;48.476;8.168;2024-03-29T00:52:06;39.20;;;31.53;;
9830;SDS011;4954;48.476;8.168;2024-03-29T00:54:32;40.33;;;31.40;;
9830;SDS011;4954;48.476;8.168;2024-03-29T00:56:57;43.33;;;33.20;;
9830;SDS011;4954;48.476;8.168;2024-03-29T00:59:23;42.37;;;31.83;;
9830;SDS011;4954;48.476;8.168;2024-03-29T01:01:49;40.73;;;31.50;;
9830;SDS011;4954;48.476;8.168;2024-03-29T01:04:15;32.90;;;28.80;;
9830;SDS011;4954;48.476;8.168;2024-03-29T01:06:41;33.33;;;29.20;;
9830;SDS011;4954;48.476;8.168;2024-03-29T01:09:10;39.00;;;31.13;;
9830;SDS011;4954;48.476;8.168;2024-03-29T01:11:36;38.60;;;30.73;;
9830;SDS011;4954;48.476;8.168;2024-03-29T01:16:38;46.10;;;33.63;;
9830;SDS011;4954;48.476;8.168;2024-03-29T01:19:04;34.30;;;29.27;;
9830;SDS011;4954;48.476;8.168;2024-03-29T01:21:30;35.50;;;30.03;;
9830;SDS011;4954;48.476;8.168;2024-03-29T01:24:00;36.13;;;30.43;;
9830;SDS011;4954;48.476;8.168;2024-03-29T01:26:25;33.83;;;29.80;;
9830;SDS011;4954;48.476;8.168;2024-03-29T01:28:51;34.27;;;29.43;;
9830;SDS011;4954;48.476;8.168;2024-03-29T01:31:16;37.90;;;28.77;;
9830;SDS011;4954;48.476;8.168;2024-03-29T01:33:42;38.60;;;30.97;;
9830;SDS011;4954;48.476;8.168;2024-03-29T01:36:07;32.50;;;29.00;;
9830;SDS011;4954;48.476;8.168;2024-03-29T01:38:33;32.30;;;28.80;;
9830;SDS011;4954;48.476;8.168;2024-03-29T01:41:00;34.70;;;29.77;;
9830;SDS011;4954;48.476;8.168;2024-03-29T01:43:26;37.67;;;30.10;;
9830;SDS011;4954;48.476;8.168;2024-03-29T01:45:57;38.07;;;30.23;;
9830;SDS011;4954;48.476;8.168;2024-03-29T01:48:24;36.67;;;30.37;;
9830;SDS011;4954;48.476;8.168;2024-03-29T01:50:53;36.43;;;30.33;;
9830;SDS011;4954;48.476;8.168;2024-03-29T01:53:22;36.73;;;30.47;;
9830;SDS011;4954;48.476;8.168;2024-03-29T01:55:51;34.70;;;30.30;;
9830;SDS011;4954;48.476;8.168;2024-03-29T01:58:17;35.63;;;29.80;;
9830;SDS011;4954;48.476;8.168;2024-03-29T02:00:52;37.03;;;30.90;;
9830;SDS011;4954;48.476;8.168;2024-03-29T02:03:22;36.17;;;29.93;;
9830;SDS011;4954;48.476;8.168;2024-03-29T02:05:48;37.37;;;30.43;;
9830;SDS011;4954;48.476;8.168;2024-03-29T02:08:14;37.07;;;30.53;;
9830;SDS011;4954;48.476;8.168;2024-03-29T02:10:41;35.30;;;29.60;;
9830;SDS011;4954;48.476;8.168;2024-03-29T02:13:08;36.73;;;30.30;;
9830;SDS011;4954;48.476;8.168;2024-03-29T02:15:34;39.10;;;30.20;;
9830;SDS011;4954;48.476;8.168;2024-03-29T02:18:00;34.67;;;30.00;;
9830;SDS011;4954;48.476;8.168;2024-03-29T02:20:26;36.67;;;30.57;;
9830;SDS011;4954;48.476;8.168;2024-03-29T02:23:00;35.50;;;30.03;;
9830;SDS011;4954;48.476;8.168;2024-03-29T02:25:34;36.10;;;30.30;;
9830;SDS011;4954;48.476;8.168;2024-03-29T02:28:01;35.70;;;30.17;;
9830;SDS011;4954;48.476;8.168;2024-03-29T02:30:28;34.63;;;29.60;;
9830;SDS011;4954;48.476;8.168;2024-03-29T02:32:58;35.17;;;29.93;;
9830;SDS011;4954;48.476;8.168;2024-03-29T02:35:24;37.20;;;30.33;;
9830;SDS011;4954;48.476;8.168;2024-03-29T02:37:52;36.27;;;28.97;;
9830;SDS011;4954;48.476;8.168;2024-03-29T02:40:19;32.47;;;28.93;;
9830;SDS011;4954;48.476;8.168;2024-03-29T02:42:45;34.63;;;29.07;;
9830;SDS011;4954;48.476;8.168;2024-03-29T02:45:13;34.40;;;29.90;;
9830;SDS011;4954;48.476;8.168;2024-03-29T02:47:38;34.07;;;29.50;;
9830;SDS011;4954;48.476;8.168;2024-03-29T02:50:05;31.90;;;28.43;;
9830;SDS011;4954;48.476;8.168;2024-03-29T02:52:32;36.43;;;30.20;;
9830;SDS011;4954;48.476;8.168;2024-03-29T02:54:58;35.17;;;29.80;;
9830;SDS011;4954;48.476;8.168;2024-03-29T02:57:23;34.97;;;29.80;;
9830;SDS011;4954;48.476;8.168;2024-03-29T02:59:49;37.80;;;30.97;;
9830;SDS011;4954;48.476;8.168;2024-03-29T03:02:14;34.83;;;29.83;;
9830;SDS011;4954;48.476;8.168;2024-03-29T03:04:40;37.70;;;30.73;;
9830;SDS011;4954;48.476;8.168;2024-03-29T03:07:05;37.20;;;30.97;;
9830;SDS011;4954;48.476;8.168;2024-03-29T03:09:49;37.97;;;30.90;;
9830;SDS011;4954;48.476;8.168;2024-03-29T03:12:33;34.17;;;29.50;;
9830;SDS011;4954;48.476;8.168;2024-03-29T03:14:58;37.57;;;30.13;;
9830;SDS011;4954;48.476;8.168;2024-03-29T03:17:25;45.03;;;33.77;;
9830;SDS011;4954;48.476;8.168;2024-03-29T03:19:52;38.30;;;31.20;;
9830;SDS011;4954;48.476;8.168;2024-03-29T03:22:17;39.27;;;31.60;;
9830;SDS011;4954;48.476;8.168;2024-03-29T03:24:43;45.00;;;33.60;;
9830;SDS011;4954;48.476;8.168;2024-03-29T03:27:09;43.13;;;32.10;;
9830;SDS011;4954;48.476;8.168;2024-03-29T03:29:35;37.20;;;30.70;;
9830;SDS011;4954;48.476;8.168;2024-03-29T03:32:00;34.23;;;29.63;;
9830;SDS011;4954;48.476;8.168;2024-03-29T03:34:26;38.40;;;31.27;;
9830;SDS011;4954;48.476;8.168;2024-03-29T03:36:52;36.83;;;30.60;;
9830;SDS011;4954;48.476;8.168;2024-03-29T03:39:17;37.77;;;31.10;;
9830;SDS011;4954;48.476;8.168;2024-03-29T03:41:43;38.10;;;30.50;;
9830;SDS011;4954;48.476;8.168;2024-03-29T03:44:08;37.67;;;30.87;;
9830;SDS011;4954;48.476;8.168;2024-03-29T03:46:34;38.10;;;31.33;;
9830;SDS011;4954;48.476;8.168;2024-03-29T03:48:59;36.30;;;30.33;;
9830;SDS011;4954;48.476;8.168;2024-03-29T03:51:25;37.50;;;31.07;;
9830;SDS011;4954;48.476;8.168;2024-03-29T03:53:50;37.30;;;30.57;;
9830;SDS011;4954;48.476;8.168;2024-03-29T03:56:16;36.77;;;30.73;;
9830;SDS011;4954;48.476;8.168;2024-03-29T03:58:43;34.93;;;30.10;;
9830;SDS011;4954;48.476;8.168;2024-03-29T04:01:09;34.97;;;29.93;;
9830;SDS011;4954;48.476;8.168;2024-03-29T04:03:35;36.83;;;30.83;;
9830;SDS011;4954;48.476;8.168;2024-03-29T04:06:04;36.33;;;30.63;;
9830;SDS011;4954;48.476;8.168;2024-03-29T04:08:31;38.50;;;31.17;;
9830;SDS011;4954;48.476;8.168;2024-03-29T04:10:56;38.17;;;30.90;;
9830;SDS011;4954;48.476;8.168;2024-03-29T04:13:22;36.63;;;30.30;;
9830;SDS011;4954;48.476;8.168;2024-03-29T04:15:48;39.00;;;31.23;;
9830;SDS011;4954;48.476;8.168;2024-03-29T04:18:14;37.90;;;30.70;;
9830;SDS011;4954;48.476;8.168;2024-03-29T04:20:39;43.57;;;31.73;;
9830;SDS011;4954;48.476;8.168;2024-03-29T04:23:05;35.83;;;30.20;;
9830;SDS011;4954;48.476;8.168;2024-03-29T04:25:31;35.43;;;29.93;;
9830;SDS011;4954;48.476;8.168;2024-03-29T04:27:58;40.57;;;31.30;;
9830;SDS011;4954;48.476;8.168;2024-03-29T04:30:24;41.70;;;32.03;;
9830;SDS011;4954;48.476;8.168;2024-03-29T04:32:50;39.17;;;31.53;;
9830;SDS011;4954;48.476;8.168;2024-03-29T04:35:15;40.53;;;31.20;;
9830;SDS011;4954;48.476;8.168;2024-03-29T04:37:41;37.87;;;30.60;;
9830;SDS011;4954;48.476;8.168;2024-03-29T04:40:07;45.73;;;33.37;;
9830;SDS011;4954;48.476;8.168;2024-03-29T04:42:33;36.53;;;30.70;;
9830;SDS011;4954;48.476;8.168;2024-03-29T04:44:58;37.73;;;31.03;;
9830;SDS011;4954;48.476;8.168;2024-03-29T04:47:24;40.43;;;32.37;;
9830;SDS011;4954;48.476;8.168;2024-03-29T04:49:49;41.20;;;32.60;;
9830;SDS011;4954;48.476;8.168;2024-03-29T04:52:15;39.37;;;31.27;;
9830;SDS011;4954;48.476;8.168;2024-03-29T04:54:40;37.97;;;30.93;;
9830;SDS011;4954;48.476;8.168;2024-03-29T04:57:06;37.67;;;30.70;;
9830;SDS011;4954;48.476;8.168;2024-03-29T04:59:32;39.83;;;32.23;;
9830;SDS011;4954;48.476;8.168;2024-03-29T05:01:58;40.47;;;32.20;;
9830;SDS011;4954;48.476;8.168;2024-03-29T05:04:25;41.30;;;31.90;;
9830;SDS011;4954;48.476;8.168;2024-03-29T05:06:51;35.67;;;30.53;;
9830;SDS011;4954;48.476;8.168;2024-03-29T05:09:24;34.67;;;30.03;;
9830;SDS011;4954;48.476;8.168;2024-03-29T05:11:50;37.80;;;31.13;;
9830;SDS011;4954;48.476;8.168;2024-03-29T05:14:17;48.33;;;34.77;;
9830;SDS011;4954;48.476;8.168;2024-03-29T05:16:44;36.83;;;31.67;;
9830;SDS011;4954;48.476;8.168;2024-03-29T05:19:12;37.03;;;30.97;;
9830;SDS011;4954;48.476;8.168;2024-03-29T05:21:39;35.83;;;30.67;;
9830;SDS011;4954;48.476;8.168;2024-03-29T05:24:07;35.80;;;30.43;;
9830;SDS011;4954;48.476;8.168;2024-03-29T05:26:33;39.87;;;32.73;;
9830;SDS011;4954;48.476;8.168;2024-03-29T05:28:59;38.23;;;30.83;;
9830;SDS011;4954;48.476;8.168;2024-03-29T05:31:25;39.90;;;32.57;;
9830;SDS011;4954;48.476;8.168;2024-03-29T05:33:52;33.10;;;29.17;;
9830;SDS011;4954;48.476;8.168;2024-03-29T05:36:17;33.77;;;29.70;;
9830;SDS011;4954;48.476;8.168;2024-03-29T05:38:43;35.00;;;30.10;;
9830;SDS011;4954;48.476;8.168;2024-03-29T05:41:10;35.30;;;29.93;;
9830;SDS011;4954;48.476;8.168;2024-03-29T05:43:36;37.50;;;31.10;;
9830;SDS011;4954;48.476;8.168;2024-03-29T05:46:05;49.80;;;35.00;;
9830;SDS011;4954;48.476;8.168;2024-03-29T05:48:31;34.50;;;30.40;;
9830;SDS011;4954;48.476;8.168;2024-03-29T05:50:57;34.63;;;30.27;;
9830;SDS011;4954;48.476;8.168;2024-03-29T05:53:22;43.70;;;33.07;;
9830;SDS011;4954;48.476;8.168;2024-03-29T05:55:48;37.93;;;31.27;;
9830;SDS011;4954;48.476;8.168;2024-03-29T05:58:13;35.30;;;30.37;;
9830;SDS011;4954;48.476;8.168;2024-03-29T06:00:43;37.40;;;31.27;;
9830;SDS011;4954;48.476;8.168;2024-03-29T06:03:09;36.57;;;31.07;;
9830;SDS011;4954;48.476;8.168;2024-03-29T06:05:36;37.07;;;31.10;;
9830;SDS011;4954;48.476;8.168;2024-03-29T06:08:02;38.67;;;31.53;;
9830;SDS011;4954;48.476;8.168;2024-03-29T06:10:30;39.57;;;32.40;;
9830;SDS011;4954;48.476;8.168;2024-03-29T06:12:56;37.73;;;31.13;;
9830;SDS011;4954;48.476;8.168;2024-03-29T06:15:21;41.27;;;32.77;;
9830;SDS011;4954;48.476;8.168;2024-03-29T06:18:05;38.97;;;31.77;;
9830;SDS011;4954;48.476;8.168;2024-03-29T06:20:32;44.10;;;33.17;;
9830;SDS011;4954;48.476;8.168;2024-03-29T06:22:58;34.70;;;30.57;;
9830;SDS011;4954;48.476;8.168;2024-03-29T06:25:24;38.13;;;32.43;;
9830;SDS011;4954;48.476;8.168;2024-03-29T06:27:49;39.90;;;33.47;;
9830;SDS011;4954;48.476;8.168;2024-03-29T06:30:15;37.80;;;32.77;;
9830;SDS011;4954;48.476;8.168;2024-03-29T06:32:44;35.97;;;31.40;;
9830;SDS011;4954;48.476;8.168;2024-03-29T06:35:10;38.20;;;33.17;;
9830;SDS011;4954;48.476;8.168;2024-03-29T06:37:39;38.50;;;31.77;;
9830;SDS011;4954;48.476;8.168;2024-03-29T06:40:05;41.63;;;33.30;;
9830;SDS011;4954;48.476;8.168;2024-03-29T06:42:33;48.27;;;35.37;;
9830;SDS011;4954;48.476;8.168;2024-03-29T06:44:58;49.93;;;37.20;;
9830;SDS011;4954;48.476;8.168;2024-03-29T06:47:24;40.90;;;34.07;;
9830;SDS011;4954;48.476;8.168;2024-03-29T06:49:52;51.37;;;38.37;;
9830;SDS011;4954;48.476;8.168;2024-03-29T06:52:18;38.20;;;32.00;;
9830;SDS011;4954;48.476;8.168;2024-03-29T06:54:43;41.10;;;33.47;;
9830;SDS011;4954;48.476;8.168;2024-03-29T06:57:09;42.33;;;33.70;;
9830;SDS011;4954;48.476;8.168;2024-03-29T06:59:39;43.20;;;35.57;;
9830;SDS011;4954;48.476;8.168;2024-03-29T07:02:05;41.17;;;32.83;;
9830;SDS011;4954;48.476;8.168;2024-03-29T07:04:31;42.07;;;33.10;;
9830;SDS011;4954;48.476;8.168;2024-03-29T07:06:56;40.17;;;33.73;;
9830;SDS011;4954;48.476;8.168;2024-03-29T07:09:23;41.97;;;33.87;;
9830;SDS011;4954;48.476;8.168;2024-03-29T07:11:50;43.70;;;35.13;;
9830;SDS011;4954;48.476;8.168;2024-03-29T07:14:17;46.60;;;35.33;;
9830;SDS011;4954;48.476;8.168;2024-03-29T07:16:48;44.60;;;35.77;;
9830;SDS011;4954;48.476;8.168;2024-03-29T07:19:14;43.07;;;34.77;;
9830;SDS011;4954;48.476;8.168;2024-03-29T07:21:41;45.40;;;34.60;;
9830;SDS011;4954;48.476;8.168;2024-03-29T07:24:10;43.10;;;34.33;;
9830;SDS011;4954;48.476;8.168;2024-03-29T07:26:36;45.93;;;34.60;;
9830;SDS011;4954;48.476;8.168;2024-03-29T07:29:02;44.37;;;34.23;;
9830;SDS011;4954;48.476;8.168;2024-03-29T07:31:30;40.23;;;34.93;;
9830;SDS011;4954;48.476;8.168;2024-03-29T07:33:56;37.00;;;32.30;;
9830;SDS011;4954;48.476;8.168;2024-03-29T07:36:21;46.10;;;34.77;;
9830;SDS011;4954;48.476;8.168;2024-03-29T07:38:49;48.13;;;35.70;;
9830;SDS011;4954;48.476;8.168;2024-03-29T07:41:15;50.07;;;35.83;;
9830;SDS011;4954;48.476;8.168;2024-03-29T07:43:41;52.03;;;38.43;;
9830;SDS011;4954;48.476;8.168;2024-03-29T07:46:17;46.13;;;35.77;;
9830;SDS011;4954;48.476;8.168;2024-03-29T07:48:43;48.63;;;36.70;;
9830;SDS011;4954;48.476;8.168;2024-03-29T07:51:08;53.90;;;40.80;;
9830;SDS011;4954;48.476;8.168;2024-03-29T07:53:34;44.20;;;36.20;;
9830;SDS011;4954;48.476;8.168;2024-03-29T07:55:59;49.93;;;36.70;;
9830;SDS011;4954;48.476;8.168;2024-03-29T07:58:26;51.57;;;36.27;;
9830;SDS011;4954;48.476;8.168;2024-03-29T08:00:52;56.80;;;43.97;;
9830;SDS011;4954;48.476;8.168;2024-03-29T08:03:18;61.43;;;42.13;;
9830;SDS011;4954;48.476;8.168;2024-03-29T08:06:00;63.43;;;46.77;;
9830;SDS011;4954;48.476;8.168;2024-03-29T08:08:29;61.20;;;42.83;;
9830;SDS011;4954;48.476;8.168;2024-03-29T08:10:59;68.57;;;46.57;;
9830;SDS011;4954;48.476;8.168;2024-03-29T08:13:25;56.93;;;44.17;;
9830;SDS011;4954;48.476;8.168;2024-03-29T08:15:58;53.97;;;41.57;;
9830;SDS011;4954;48.476;8.168;2024-03-29T08:18:25;48.73;;;38.13;;
9830;SDS011;4954;48.476;8.168;2024-03-29T08:20:55;43.57;;;35.27;;
9830;SDS011;4954;48.476;8.168;2024-03-29T08:23:24;49.07;;;36.87;;
9830;SDS011;4954;48.476;8.168;2024-03-29T08:25:50;45.00;;;35.33;;
9830;SDS011;4954;48.476;8.168;2024-03-29T08:28:20;49.30;;;36.73;;
9830;SDS011;4954;48.476;8.168;2024-03-29T08:30:46;59.37;;;43.80;;
9830;SDS011;4954;48.476;8.168;2024-03-29T08:33:22;53.47;;;40.13;;
9830;SDS011;4954;48.476;8.168;2024-03-29T08:35:50;50.17;;;38.27;;
9830;SDS011;4954;48.476;8.168;2024-03-29T08:38:19;57.13;;;42.53;;
9830;SDS011;4954;48.476;8.168;2024-03-29T08:40:48;52.00;;;41.57;;
9830;SDS011;4954;48.476;8.168;2024-03-29T08:43:14;49.93;;;38.77;;
9830;SDS011;4954;48.476;8.168;2024-03-29T08:45:42;53.53;;;40.93;;
9830;SDS011;4954;48.476;8.168;2024-03-29T08:48:09;56.47;;;41.03;;
9830;SDS011;4954;48.476;8.168;2024-03-29T08:50:38;53.43;;;40.23;;
9830;SDS011;4954;48.476;8.168;2024-03-29T08:53:03;53.13;;;39.67;;
9830;SDS011;4954;48.476;8.168;2024-03-29T08:55:30;50.80;;;38.23;;
9830;SDS011;4954;48.476;8.168;2024-03-29T08:57:57;45.47;;;36.13;;
9830;SDS011;4954;48.476;8.168;2024-03-29T09:00:24;59.23;;;41.33;;
9830;SDS011;4954;48.476;8.168;2024-03-29T09:02:51;51.67;;;36.60;;
9830;SDS011;4954;48.476;8.168;2024-03-29T09:05:16;50.13;;;37.27;;
9830;SDS011;4954;48.476;8.168;2024-03-29T09:07:42;50.70;;;38.33;;
9830;SDS011;4954;48.476;8.168;2024-03-29T09:10:07;51.07;;;37.83;;
9830;SDS011;4954;48.476;8.168;2024-03-29T09:12:33;55.23;;;39.80;;
9830;SDS011;4954;48.476;8.168;2024-03-29T09:14:59;48.10;;;39.43;;
9830;SDS011;4954;48.476;8.168;2024-03-29T09:17:26;53.37;;;40.23;;
9830;SDS011;4954;48.476;8.168;2024-03-29T09:19:52;51.10;;;40.10;;
9830;SDS011;4954;48.476;8.168;2024-03-29T09:22:18;56.93;;;40.27;;
9830;SDS011;4954;48.476;8.168;2024-03-29T09:24:44;48.83;;;38.40;;
9830;SDS011;4954;48.476;8.168;2024-03-29T09:27:10;54.37;;;40.80;;
9830;SDS011;4954;48.476;8.168;2024-03-29T09:29:35;50.27;;;39.50;;
9830;SDS011;4954;48.476;8.168;2024-03-29T09:32:01;47.10;;;38.57;;
9830;SDS011;4954;48.476;8.168;2024-03-29T09:34:27;48.37;;;38.93;;
9830;SDS011;4954;48.476;8.168;2024-03-29T09:36:53;46.13;;;38.17;;
9830;SDS011;4954;48.476;8.168;2024-03-29T09:39:19;51.07;;;39.13;;
9830;SDS011;4954;48.476;8.168;2024-03-29T09:41:45;58.63;;;39.83;;
9830;SDS011;4954;48.476;8.168;2024-03-29T09:44:11;50.40;;;37.20;;
9830;SDS011;4954;48.476;8.168;2024-03-29T09:46:38;49.73;;;37.20;;
9830;SDS011;4954;48.476;8.168;2024-03-29T09:49:06;49.40;;;37.33;;
9830;SDS011;4954;48.476;8.168;2024-03-29T09:51:33;57.07;;;48.70;;
9830;SDS011;4954;48.476;8.168;2024-03-29T09:54:00;70.93;;;56.67;;
9830;SDS011;4954;48.476;8.168;2024-03-29T09:56:29;79.43;;;64.70;;
9830;SDS011;4954;48.476;8.168;2024-03-29T09:58:55;72.47;;;58.33;;
9830;SDS011;4954;48.476;8.168;2024-03-29T10:01:22;66.00;;;51.50;;
9830;SDS011;4954;48.476;8.168;2024-03-29T10:03:48;52.97;;;41.63;;
9830;SDS011;4954;48.476;8.168;2024-03-29T10:06:16;56.83;;;40.87;;
9830;SDS011;4954;48.476;8.168;2024-03-29T10:08:47;75.53;;;56.00;;
9830;SDS011;4954;48.476;8.168;2024-03-29T10:11:14;53.83;;;41.03;;
9830;SDS011;4954;48.476;8.168;2024-03-29T10:13:44;58.88;;;46.15;;
9830;SDS011;4954;48.476;8.168;2024-03-29T10:16:10;69.00;;;55.28;;
9830;SDS011;4954;48.476;8.168;2024-03-29T10:18:37;61.88;;;46.92;;
9830;SDS011;4954;48.476;8.168;2024-03-29T10:21:05;81.95;;;59.88;;
9830;SDS011;4954;48.476;8.168;2024-03-29T10:23:33;81.25;;;67.22;;
9830;SDS011;4954;48.476;8.168;2024-03-29T10:26:00;86.18;;;69.68;;
9830;SDS011;4954;48.476;8.168;2024-03-29T10:28:31;74.55;;;58.33;;
9830;SDS011;4954;48.476;8.168;2024-03-29T10:31:02;81.80;;;68.50;;
9830;SDS011;4954;48.476;8.168;2024-03-29T10:33:32;60.60;;;46.08;;
9830;SDS011;4954;48.476;8.168;2024-03-29T10:35:59;90.82;;;73.72;;
9830;SDS011;4954;48.476;8.168;2024-03-29T10:38:28;63.80;;;45.72;;
9830;SDS011;4954;48.476;8.168;2024-03-29T10:40:54;63.78;;;45.85;;
9830;SDS011;4954;48.476;8.168;2024-03-29T10:43:20;62.30;;;44.63;;
9830;SDS011;4954;48.476;8.168;2024-03-29T10:45:47;68.22;;;47.08;;
9830;SDS011;4954;48.476;8.168;2024-03-29T10:48:15;72.30;;;48.00;;
9830;SDS011;4954;48.476;8.168;2024-03-29T10:50:42;66.85;;;45.60;;
9830;SDS011;4954;48.476;8.168;2024-03-29T10:53:10;63.53;;;45.97;;
9830;SDS011;4954;48.476;8.168;2024-03-29T10:55:40;55.20;;;42.85;;
9830;SDS011;4954;48.476;8.168;2024-03-29T10:58:08;85.15;;;51.35;;
9830;SDS011;4954;48.476;8.168;2024-03-29T11:00:45;78.88;;;50.03;;
9830;SDS011;4954;48.476;8.168;2024-03-29T11:03:20;49.33;;;41.03;;
9830;SDS011;4954;48.476;8.168;2024-03-29T11:06:05;65.47;;;45.30;;
9830;SDS011;4954;48.476;8.168;2024-03-29T11:08:32;64.55;;;44.72;;
9830;SDS011;4954;48.476;8.168;2024-03-29T11:11:03;59.38;;;42.88;;
9830;SDS011;4954;48.476;8.168;2024-03-29T11:16:27;59.22;;;43.22;;
9830;SDS011;4954;48.476;8.168;2024-03-29T11:18:53;71.10;;;45.15;;
9830;SDS011;4954;48.476;8.168;2024-03-29T11:21:19;57.58;;;41.60;;
9830;SDS011;4954;48.476;8.168;2024-03-29T11:23:49;64.10;;;44.22;;
9830;SDS011;4954;48.476;8.168;2024-03-29T11:26:17;67.00;;;45.47;;
9830;SDS011;4954;48.476;8.168;2024-03-29T11:28:48;57.53;;;42.33;;
9830;SDS011;4954;48.476;8.168;2024-03-29T11:31:15;59.55;;;42.78;;
9830;SDS011;4954;48.476;8.168;2024-03-29T11:39:19;54.08;;;41.10;;
9830;SDS011;4954;48.476;8.168;2024-03-29T11:41:47;54.78;;;42.20;;
9830;SDS011;4954;48.476;8.168;2024-03-29T11:44:13;49.00;;;40.38;;
9830;SDS011;4954;48.476;8.168;2024-03-29T11:46:40;60.15;;;44.42;;
9830;SDS011;4954;48.476;8.168;2024-03-29T11:49:05;54.22;;;44.63;;
9830;SDS011;4954;48.476;8.168;2024-03-29T11:51:32;51.53;;;40.17;;
9830;SDS011;4954;48.476;8.168;2024-03-29T11:53:59;53.70;;;40.95;;
9830;SDS011;4954;48.476;8.168;2024-03-29T11:56:25;64.15;;;45.92;;
9830;SDS011;4954;48.476;8.168;2024-03-29T11:58:51;61.03;;;43.10;;
9830;SDS011;4954;48.476;8.168;2024-03-29T12:01:18;69.55;;;48.95;;
9830;SDS011;4954;48.476;8.168;2024-03-29T12:03:43;58.22;;;42.50;;
9830;SDS011;4954;48.476;8.168;2024-03-29T12:06:09;61.22;;;43.15;;
9830;SDS011;4954;48.476;8.168;2024-03-29T12:08:37;65.03;;;45.42;;
9830;SDS011;4954;48.476;8.168;2024-03-29T12:11:04;67.47;;;45.30;;
9830;SDS011;4954;48.476;8.168;2024-03-29T12:13:31;59.58;;;43.28;;
9830;SDS011;4954;48.476;8.168;2024-03-29T12:15:57;53.60;;;41.45;;
9830;SDS011;4954;48.476;8.168;2024-03-29T12:18:24;70.78;;;47.00;;
9830;SDS011;4954;48.476;8.168;2024-03-29T12:20:53;67.25;;;51.53;;
9830;SDS011;4954;48.476;8.168;2024-03-29T12:23:19;63.38;;;44.85;;
9830;SDS011;4954;48.476;8.168;2024-03-29T12:25:47;60.40;;;44.38;;
9830;SDS011;4954;48.476;8.168;2024-03-29T12:28:15;57.13;;;41.88;;
9830;SDS011;4954;48.476;8.168;2024-03-29T12:30:43;62.72;;;44.47;;
9830;SDS011;4954;48.476;8.168;2024-03-29T12:33:11;65.40;;;45.53;;
9830;SDS011;4954;48.476;8.168;2024-03-29T12:35:43;62.45;;;45.33;;
9830;SDS011;4954;48.476;8.168;2024-03-29T12:38:14;66.40;;;47.42;;
9830;SDS011;4954;48.476;8.168;2024-03-29T12:40:42;74.05;;;50.25;;
9830;SDS011;4954;48.476;8.168;2024-03-29T12:43:13;65.50;;;44.92;;
9830;SDS011;4954;48.476;8.168;2024-03-29T12:45:43;57.70;;;42.72;;
9830;SDS011;4954;48.476;8.168;2024-03-29T12:48:11;53.65;;;43.10;;
9830;SDS011;4954;48.476;8.168;2024-03-29T12:50:42;65.72;;;46.05;;
9830;SDS011;4954;48.476;8.168;2024-03-29T12:53:11;62.17;;;44.28;;
9830;SDS011;4954;48.476;8.168;2024-03-29T12:55:39;64.03;;;45.65;;
9830;SDS011;4954;48.476;8.168;2024-03-29T12:58:18;60.33;;;46.83;;
9830;SDS011;4954;48.476;8.168;2024-03-29T13:00:47;58.33;;;43.88;;
9830;SDS011;4954;48.476;8.168;2024-03-29T13:03:13;59.40;;;44.40;;
9830;SDS011;4954;48.476;8.168;2024-03-29T13:05:39;61.00;;;45.85;;
9830;SDS011;4954;48.476;8.168;2024-03-29T13:08:07;58.90;;;45.15;;
9830;SDS011;4954;48.476;8.168;2024-03-29T13:10:35;61.72;;;45.83;;
9830;SDS011;4954;48.476;8.168;2024-03-29T13:13:06;62.28;;;47.08;;
9830;SDS011;4954;48.476;8.168;2024-03-29T13:15:34;57.95;;;44.60;;
9830;SDS011;4954;48.476;8.168;2024-03-29T13:18:02;57.03;;;44.63;;
9830;SDS011;4954;48.476;8.168;2024-03-29T13:20:30;83.97;;;52.33;;
9830;SDS011;4954;48.476;8.168;2024-03-29T13:22:58;59.25;;;47.00;;
9830;SDS011;4954;48.476;8.168;2024-03-29T13:25:25;60.67;;;49.75;;
9830;SDS011;4954;48.476;8.168;2024-03-29T13:27:52;57.13;;;45.15;;
9830;SDS011;4954;48.476;8.168;2024-03-29T13:30:24;80.72;;;50.78;;
9830;SDS011;4954;48.476;8.168;2024-03-29T13:32:52;66.15;;;47.03;;
9830;SDS011;4954;48.476;8.168;2024-03-29T13:35:19;81.38;;;55.17;;
9830;SDS011;4954;48.476;8.168;2024-03-29T13:37:47;73.35;;;55.58;;
9830;SDS011;4954;48.476;8.168;2024-03-29T13:40:15;66.55;;;49.67;;
9830;SDS011;4954;48.476;8.168;2024-03-29T13:42:43;65.68;;;53.03;;
9830;SDS011;4954;48.476;8.168;2024-03-29T13:45:09;56.25;;;50.13;;
9830;SDS011;4954;48.476;8.168;2024-03-29T13:47:42;64.70;;;48.95;;
9830;SDS011;4954;48.476;8.168;2024-03-29T13:50:11;68.38;;;50.20;;
9830;SDS011;4954;48.476;8.168;2024-03-29T13:52:38;64.82;;;48.17;;
9830;SDS011;4954;48.476;8.168;2024-03-29T13:55:04;58.78;;;49.03;;
9830;SDS011;4954;48.476;8.168;2024-03-29T13:57:31;64.03;;;49.25;;
9830;SDS011;4954;48.476;8.168;2024-03-29T13:59:58;60.45;;;46.05;;
9830;SDS011;4954;48.476;8.168;2024-03-29T14:02:24;67.43;;;48.58;;
9830;SDS011;4954;48.476;8.168;2024-03-29T14:04:52;68.07;;;50.28;;
9830;SDS011;4954;48.476;8.168;2024-03-29T14:07:18;71.70;;;50.90;;
9830;SDS011;4954;48.476;8.168;2024-03-29T14:09:44;65.15;;;48.83;;
9830;SDS011;4954;48.476;8.168;2024-03-29T14:12:13;128.63;;;91.68;;
9830;SDS011;4954;48.476;8.168;2024-03-29T14:14:39;74.28;;;55.05;;
9830;SDS011;4954;48.476;8.168;2024-03-29T14:17:12;55.83;;;45.38;;
9830;SDS011;4954;48.476;8.168;2024-03-29T14:19:39;78.07;;;52.13;;
9830;SDS011;4954;48.476;8.168;2024-03-29T14:22:05;66.25;;;49.13;;
9830;SDS011;4954;48.476;8.168;2024-03-29T14:24:32;155.98;;;113.78;;
9830;SDS011;4954;48.476;8.168;2024-03-29T14:27:02;76.60;;;57.25;;
9830;SDS011;4954;48.476;8.168;2024-03-29T14:29:32;156.48;;;98.25;;
9830;SDS011;4954;48.476;8.168;2024-03-29T14:31:59;79.63;;;53.95;;
9830;SDS011;4954;48.476;8.168;2024-03-29T14:34:26;71.22;;;51.08;;
9830;SDS011;4954;48.476;8.168;2024-03-29T14:36:52;70.88;;;49.72;;
9830;SDS011;4954;48.476;8.168;2024-03-29T14:39:18;66.80;;;48.42;;
9830;SDS011;4954;48.476;8.168;2024-03-29T14:41:46;83.68;;;53.72;;
9830;SDS011;4954;48.476;8.168;2024-03-29T14:44:15;74.93;;;50.60;;
9830;SDS011;4954;48.476;8.168;2024-03-29T14:46:45;94.55;;;56.80;;
9830;SDS011;4954;48.476;8.168;2024-03-29T14:49:12;58.97;;;46.65;;
9830;SDS011;4954;48.476;8.168;2024-03-29T14:51:39;84.82;;;52.50;;
9830;SDS011;4954;48.476;8.168;2024-03-29T14:54:06;62.35;;;46.92;;
9830;SDS011;4954;48.476;8.168;2024-03-29T14:56:32;67.43;;;47.90;;
9830;SDS011;4954;48.476;8.168;2024-03-29T14:59:06;67.95;;;48.05;;